sensor_id;sensor_type;location;lat;lon;timestamp;P1;durP1;ratioP1;P2;durP2;ratioP2
45848;SDS011;31567;54.600;9.842;2023-12-28T00:01:22;7.38;;;5.25;;
45848;SDS011;31567;54.600;9.842;2023-12-28T00:05:02;5.80;;;4.40;;
45848;SDS011;31567;54.600;9.842;2023-12-28T00:08:42;6.78;;;4.50;;
45848;SDS011;31567;54.600;9.842;2023-12-28T00:12:22;6.18;;;4.28;;
45848;SDS011;31567;54.600;9.842;2023-12-28T00:16:02;5.00;;;4.25;;
45848;SDS011;31567;54.600;9.842;2023-12-28T00:19:41;6.15;;;4.63;;
45848;SDS011;31567;54.600;9.842;2023-12-28T00:23:21;5.10;;;4.55;;
45848;SDS011;31567;54.600;9.842;2023-12-28T00:27:00;5.97;;;4.40;;
45848;SDS011;31567;54.600;9.842;2023-12-28T00:30:40;6.60;;;4.35;;
45848;SDS011;31567;54.600;9.842;2023-12-28T00:34:19;7.28;;;5.05;;
45848;SDS011;31567;54.600;9.842;2023-12-28T00:37:59;7.55;;;4.20;;
45848;SDS011;31567;54.600;9.842;2023-12-28T00:41:38;5.55;;;4.55;;
45848;SDS011;31567;54.600;9.842;2023-12-28T00:45:18;5.20;;;3.50;;
45848;SDS011;31567;54.600;9.842;2023-12-28T00:48:58;6.72;;;4.72;;
45848;SDS011;31567;54.600;9.842;2023-12-28T00:52:37;6.03;;;4.30;;
45848;SDS011;31567;54.600;9.842;2023-12-28T00:56:17;5.53;;;4.68;;
45848;SDS011;31567;54.600;9.842;2023-12-28T00:59:56;8.45;;;3.88;;
45848;SDS011;31567;54.600;9.842;2023-12-28T01:03:36;5.57;;;3.03;;
45848;SDS011;31567;54.600;9.842;2023-12-28T01:07:16;6.30;;;3.67;;
45848;SDS011;31567;54.600;9.842;2023-12-28T01:10:55;5.72;;;4.13;;
45848;SDS011;31567;54.600;9.842;2023-12-28T01:14:35;3.70;;;3.17;;
45848;SDS011;31567;54.600;9.842;2023-12-28T01:18:14;5.63;;;4.35;;
45848;SDS011;31567;54.600;9.842;2023-12-28T01:21:54;7.88;;;4.00;;
45848;SDS011;31567;54.600;9.842;2023-12-28T01:25:33;9.02;;;5.18;;
45848;SDS011;31567;54.600;9.842;2023-12-28T01:29:13;7.30;;;4.05;;
45848;SDS011;31567;54.600;9.842;2023-12-28T01:32:53;4.22;;;3.70;;
45848;SDS011;31567;54.600;9.842;2023-12-28T01:36:33;5.95;;;4.25;;
45848;SDS011;31567;54.600;9.842;2023-12-28T01:40:12;5.80;;;3.70;;
45848;SDS011;31567;54.600;9.842;2023-12-28T01:43:52;4.43;;;3.78;;
45848;SDS011;31567;54.600;9.842;2023-12-28T01:47:31;4.72;;;3.80;;
45848;SDS011;31567;54.600;9.842;2023-12-28T01:51:11;5.75;;;4.50;;
45848;SDS011;31567;54.600;9.842;2023-12-28T01:54:52;7.43;;;3.97;;
45848;SDS011;31567;54.600;9.842;2023-12-28T01:58:32;5.97;;;3.40;;
45848;SDS011;31567;54.600;9.842;2023-12-28T02:02:14;4.32;;;3.33;;
45848;SDS011;31567;54.600;9.842;2023-12-28T02:05:54;7.18;;;4.13;;
45848;SDS011;31567;54.600;9.842;2023-12-28T02:09:34;6.70;;;3.70;;
45848;SDS011;31567;54.600;9.842;2023-12-28T02:13:13;7.25;;;3.70;;
45848;SDS011;31567;54.600;9.842;2023-12-28T02:17:00;7.25;;;4.20;;
45848;SDS011;31567;54.600;9.842;2023-12-28T02:20:49;4.82;;;3.92;;
45848;SDS011;31567;54.600;9.842;2023-12-28T02:24:29;7.63;;;4.07;;
45848;SDS011;31567;54.600;9.842;2023-12-28T02:28:09;4.80;;;3.67;;
45848;SDS011;31567;54.600;9.842;2023-12-28T02:31:51;6.00;;;3.50;;
45848;SDS011;31567;54.600;9.842;2023-12-28T02:35:38;5.85;;;3.70;;
45848;SDS011;31567;54.600;9.842;2023-12-28T02:39:23;6.10;;;3.13;;
45848;SDS011;31567;54.600;9.842;2023-12-28T02:43:04;6.07;;;3.53;;
45848;SDS011;31567;54.600;9.842;2023-12-28T02:46:45;5.47;;;3.50;;
45848;SDS011;31567;54.600;9.842;2023-12-28T02:50:25;5.57;;;3.67;;
45848;SDS011;31567;54.600;9.842;2023-12-28T02:54:04;6.68;;;2.85;;
45848;SDS011;31567;54.600;9.842;2023-12-28T02:57:44;5.30;;;3.20;;
45848;SDS011;31567;54.600;9.842;2023-12-28T03:01:23;4.05;;;2.78;;
45848;SDS011;31567;54.600;9.842;2023-12-28T03:05:06;5.28;;;2.95;;
45848;SDS011;31567;54.600;9.842;2023-12-28T03:08:46;7.40;;;3.85;;
45848;SDS011;31567;54.600;9.842;2023-12-28T03:12:26;7.00;;;3.58;;
45848;SDS011;31567;54.600;9.842;2023-12-28T03:16:07;7.35;;;3.92;;
45848;SDS011;31567;54.600;9.842;2023-12-28T03:19:46;5.68;;;3.35;;
45848;SDS011;31567;54.600;9.842;2023-12-28T03:23:26;4.57;;;3.05;;
45848;SDS011;31567;54.600;9.842;2023-12-28T03:27:05;6.70;;;3.72;;
45848;SDS011;31567;54.600;9.842;2023-12-28T03:30:45;5.53;;;3.22;;
45848;SDS011;31567;54.600;9.842;2023-12-28T03:34:25;7.03;;;2.90;;
45848;SDS011;31567;54.600;9.842;2023-12-28T03:38:09;5.55;;;3.05;;
45848;SDS011;31567;54.600;9.842;2023-12-28T03:41:48;4.22;;;3.80;;
45848;SDS011;31567;54.600;9.842;2023-12-28T03:45:28;5.47;;;3.13;;
45848;SDS011;31567;54.600;9.842;2023-12-28T03:49:07;9.80;;;3.83;;
45848;SDS011;31567;54.600;9.842;2023-12-28T03:52:47;7.97;;;4.75;;
45848;SDS011;31567;54.600;9.842;2023-12-28T03:56:27;6.18;;;3.13;;
45848;SDS011;31567;54.600;9.842;2023-12-28T04:00:07;8.73;;;3.40;;
45848;SDS011;31567;54.600;9.842;2023-12-28T04:03:47;7.95;;;3.58;;
45848;SDS011;31567;54.600;9.842;2023-12-28T04:07:27;7.03;;;3.50;;
45848;SDS011;31567;54.600;9.842;2023-12-28T04:11:07;10.30;;;3.67;;
45848;SDS011;31567;54.600;9.842;2023-12-28T04:14:47;5.80;;;3.20;;
45848;SDS011;31567;54.600;9.842;2023-12-28T04:18:27;7.20;;;3.40;;
45848;SDS011;31567;54.600;9.842;2023-12-28T04:22:06;7.13;;;2.97;;
45848;SDS011;31567;54.600;9.842;2023-12-28T04:25:46;5.90;;;2.85;;
45848;SDS011;31567;54.600;9.842;2023-12-28T04:29:25;5.30;;;2.90;;
45848;SDS011;31567;54.600;9.842;2023-12-28T04:33:05;6.40;;;3.13;;
45848;SDS011;31567;54.600;9.842;2023-12-28T04:36:44;6.40;;;3.03;;
45848;SDS011;31567;54.600;9.842;2023-12-28T04:40:25;6.90;;;3.42;;
45848;SDS011;31567;54.600;9.842;2023-12-28T04:44:05;5.90;;;2.83;;
45848;SDS011;31567;54.600;9.842;2023-12-28T04:47:44;6.32;;;2.88;;
45848;SDS011;31567;54.600;9.842;2023-12-28T04:51:24;6.22;;;2.78;;
45848;SDS011;31567;54.600;9.842;2023-12-28T04:55:03;6.50;;;1.95;;
45848;SDS011;31567;54.600;9.842;2023-12-28T04:58:43;10.18;;;2.63;;
45848;SDS011;31567;54.600;9.842;2023-12-28T05:02:23;6.95;;;2.70;;
45848;SDS011;31567;54.600;9.842;2023-12-28T05:06:02;7.13;;;2.83;;
45848;SDS011;31567;54.600;9.842;2023-12-28T05:09:42;8.65;;;2.70;;
45848;SDS011;31567;54.600;9.842;2023-12-28T05:13:22;6.05;;;2.00;;
45848;SDS011;31567;54.600;9.842;2023-12-28T05:17:01;11.18;;;2.95;;
45848;SDS011;31567;54.600;9.842;2023-12-28T05:20:41;7.18;;;2.08;;
45848;SDS011;31567;54.600;9.842;2023-12-28T05:24:20;15.52;;;2.67;;
45848;SDS011;31567;54.600;9.842;2023-12-28T05:28:00;13.32;;;2.88;;
45848;SDS011;31567;54.600;9.842;2023-12-28T05:31:39;6.80;;;2.60;;
45848;SDS011;31567;54.600;9.842;2023-12-28T05:35:19;8.02;;;2.58;;
45848;SDS011;31567;54.600;9.842;2023-12-28T05:38:59;5.50;;;2.00;;
45848;SDS011;31567;54.600;9.842;2023-12-28T05:42:38;10.52;;;2.28;;
45848;SDS011;31567;54.600;9.842;2023-12-28T05:46:18;6.78;;;2.50;;
45848;SDS011;31567;54.600;9.842;2023-12-28T05:49:57;7.00;;;2.35;;
45848;SDS011;31567;54.600;9.842;2023-12-28T05:53:37;9.45;;;2.03;;
45848;SDS011;31567;54.600;9.842;2023-12-28T05:57:16;13.55;;;3.63;;
45848;SDS011;31567;54.600;9.842;2023-12-28T06:00:56;6.85;;;2.05;;
45848;SDS011;31567;54.600;9.842;2023-12-28T06:04:36;7.97;;;2.13;;
45848;SDS011;31567;54.600;9.842;2023-12-28T06:08:15;7.28;;;2.10;;
45848;SDS011;31567;54.600;9.842;2023-12-28T06:11:55;9.13;;;2.17;;
45848;SDS011;31567;54.600;9.842;2023-12-28T06:15:34;9.15;;;2.70;;
45848;SDS011;31567;54.600;9.842;2023-12-28T06:19:14;7.55;;;3.28;;
45848;SDS011;31567;54.600;9.842;2023-12-28T06:22:53;13.07;;;2.78;;
45848;SDS011;31567;54.600;9.842;2023-12-28T06:26:33;8.85;;;2.40;;
45848;SDS011;31567;54.600;9.842;2023-12-28T06:30:13;8.55;;;2.30;;
45848;SDS011;31567;54.600;9.842;2023-12-28T06:33:53;7.10;;;2.10;;
45848;SDS011;31567;54.600;9.842;2023-12-28T06:37:33;10.55;;;3.08;;
45848;SDS011;31567;54.600;9.842;2023-12-28T06:41:13;7.57;;;1.90;;
45848;SDS011;31567;54.600;9.842;2023-12-28T06:44:52;10.00;;;3.10;;
45848;SDS011;31567;54.600;9.842;2023-12-28T06:48:32;7.25;;;2.17;;
45848;SDS011;31567;54.600;9.842;2023-12-28T06:52:11;4.63;;;2.65;;
45848;SDS011;31567;54.600;9.842;2023-12-28T06:55:51;5.20;;;2.00;;
45848;SDS011;31567;54.600;9.842;2023-12-28T06:59:30;5.38;;;2.15;;
45848;SDS011;31567;54.600;9.842;2023-12-28T07:03:10;7.72;;;2.15;;
45848;SDS011;31567;54.600;9.842;2023-12-28T07:06:49;6.70;;;2.35;;
45848;SDS011;31567;54.600;9.842;2023-12-28T07:10:29;8.20;;;3.20;;
45848;SDS011;31567;54.600;9.842;2023-12-28T07:14:08;7.53;;;2.50;;
45848;SDS011;31567;54.600;9.842;2023-12-28T07:17:48;6.60;;;2.10;;
45848;SDS011;31567;54.600;9.842;2023-12-28T07:21:28;6.65;;;2.13;;
45848;SDS011;31567;54.600;9.842;2023-12-28T07:25:07;5.20;;;2.08;;
45848;SDS011;31567;54.600;9.842;2023-12-28T07:28:47;7.82;;;2.15;;
45848;SDS011;31567;54.600;9.842;2023-12-28T07:32:28;8.70;;;2.33;;
45848;SDS011;31567;54.600;9.842;2023-12-28T07:36:08;8.95;;;2.42;;
45848;SDS011;31567;54.600;9.842;2023-12-28T07:39:47;2.85;;;1.58;;
45848;SDS011;31567;54.600;9.842;2023-12-28T07:43:27;9.52;;;2.40;;
45848;SDS011;31567;54.600;9.842;2023-12-28T07:47:07;10.55;;;2.25;;
45848;SDS011;31567;54.600;9.842;2023-12-28T07:50:46;5.00;;;1.70;;
45848;SDS011;31567;54.600;9.842;2023-12-28T07:54:28;5.85;;;2.08;;
45848;SDS011;31567;54.600;9.842;2023-12-28T07:58:07;3.05;;;1.63;;
45848;SDS011;31567;54.600;9.842;2023-12-28T08:01:47;8.73;;;2.28;;
45848;SDS011;31567;54.600;9.842;2023-12-28T08:05:26;7.40;;;2.00;;
45848;SDS011;31567;54.600;9.842;2023-12-28T08:09:06;3.63;;;1.40;;
45848;SDS011;31567;54.600;9.842;2023-12-28T08:12:46;7.25;;;1.92;;
45848;SDS011;31567;54.600;9.842;2023-12-28T08:16:25;8.40;;;2.03;;
45848;SDS011;31567;54.600;9.842;2023-12-28T08:20:05;3.83;;;1.38;;
45848;SDS011;31567;54.600;9.842;2023-12-28T08:23:45;5.53;;;1.60;;
45848;SDS011;31567;54.600;9.842;2023-12-28T08:27:25;6.43;;;2.10;;
45848;SDS011;31567;54.600;9.842;2023-12-28T08:31:04;12.32;;;2.08;;
45848;SDS011;31567;54.600;9.842;2023-12-28T08:34:46;4.30;;;1.60;;
45848;SDS011;31567;54.600;9.842;2023-12-28T08:38:26;8.60;;;1.77;;
45848;SDS011;31567;54.600;9.842;2023-12-28T08:42:06;5.07;;;1.70;;
45848;SDS011;31567;54.600;9.842;2023-12-28T08:45:45;11.90;;;2.75;;
45848;SDS011;31567;54.600;9.842;2023-12-28T08:49:25;11.50;;;2.50;;
45848;SDS011;31567;54.600;9.842;2023-12-28T08:53:05;4.72;;;1.50;;
45848;SDS011;31567;54.600;9.842;2023-12-28T08:56:44;7.15;;;1.95;;
45848;SDS011;31567;54.600;9.842;2023-12-28T09:00:24;9.10;;;2.08;;
45848;SDS011;31567;54.600;9.842;2023-12-28T09:04:04;7.55;;;2.10;;
45848;SDS011;31567;54.600;9.842;2023-12-28T09:07:43;4.00;;;1.27;;
45848;SDS011;31567;54.600;9.842;2023-12-28T09:11:23;3.15;;;1.20;;
45848;SDS011;31567;54.600;9.842;2023-12-28T09:15:06;10.00;;;2.17;;
45848;SDS011;31567;54.600;9.842;2023-12-28T09:18:46;9.07;;;1.63;;
45848;SDS011;31567;54.600;9.842;2023-12-28T09:22:26;10.55;;;1.80;;
45848;SDS011;31567;54.600;9.842;2023-12-28T09:26:06;7.70;;;2.15;;
45848;SDS011;31567;54.600;9.842;2023-12-28T09:29:45;7.63;;;1.83;;
45848;SDS011;31567;54.600;9.842;2023-12-28T09:33:25;10.80;;;2.00;;
45848;SDS011;31567;54.600;9.842;2023-12-28T09:37:05;11.73;;;2.42;;
45848;SDS011;31567;54.600;9.842;2023-12-28T09:40:44;6.13;;;1.58;;
45848;SDS011;31567;54.600;9.842;2023-12-28T09:44:24;13.18;;;2.95;;
45848;SDS011;31567;54.600;9.842;2023-12-28T09:48:05;8.00;;;2.00;;
45848;SDS011;31567;54.600;9.842;2023-12-28T09:51:46;8.05;;;1.83;;
45848;SDS011;31567;54.600;9.842;2023-12-28T09:55:26;6.93;;;1.70;;
45848;SDS011;31567;54.600;9.842;2023-12-28T09:59:05;12.50;;;2.45;;
45848;SDS011;31567;54.600;9.842;2023-12-28T10:02:46;15.63;;;1.83;;
45848;SDS011;31567;54.600;9.842;2023-12-28T10:06:25;13.93;;;2.53;;
45848;SDS011;31567;54.600;9.842;2023-12-28T10:10:05;12.18;;;2.53;;
45848;SDS011;31567;54.600;9.842;2023-12-28T10:13:45;12.52;;;2.03;;
45848;SDS011;31567;54.600;9.842;2023-12-28T10:17:25;11.93;;;2.88;;
45848;SDS011;31567;54.600;9.842;2023-12-28T10:21:05;11.13;;;2.20;;
45848;SDS011;31567;54.600;9.842;2023-12-28T10:24:45;12.93;;;2.63;;
45848;SDS011;31567;54.600;9.842;2023-12-28T10:28:25;14.13;;;3.13;;
45848;SDS011;31567;54.600;9.842;2023-12-28T10:32:05;16.35;;;2.92;;
45848;SDS011;31567;54.600;9.842;2023-12-28T10:35:44;14.98;;;2.05;;
45848;SDS011;31567;54.600;9.842;2023-12-28T10:39:24;14.02;;;2.97;;
45848;SDS011;31567;54.600;9.842;2023-12-28T10:43:08;14.85;;;3.10;;
45848;SDS011;31567;54.600;9.842;2023-12-28T10:46:54;23.98;;;3.95;;
45848;SDS011;31567;54.600;9.842;2023-12-28T10:50:41;17.75;;;3.17;;
45848;SDS011;31567;54.600;9.842;2023-12-28T10:58:33;21.25;;;3.17;;
45848;SDS011;31567;54.600;9.842;2023-12-28T11:02:33;20.63;;;3.80;;
45848;SDS011;31567;54.600;9.842;2023-12-28T11:06:26;15.02;;;2.75;;
45848;SDS011;31567;54.600;9.842;2023-12-28T11:10:07;20.23;;;3.85;;
45848;SDS011;31567;54.600;9.842;2023-12-28T11:13:52;22.23;;;3.30;;
45848;SDS011;31567;54.600;9.842;2023-12-28T11:17:38;20.25;;;3.33;;
45848;SDS011;31567;54.600;9.842;2023-12-28T11:21:19;22.05;;;3.58;;
45848;SDS011;31567;54.600;9.842;2023-12-28T11:25:01;24.80;;;4.90;;
45848;SDS011;31567;54.600;9.842;2023-12-28T11:28:40;25.35;;;3.80;;
45848;SDS011;31567;54.600;9.842;2023-12-28T11:32:20;24.08;;;5.13;;
45848;SDS011;31567;54.600;9.842;2023-12-28T11:35:59;20.55;;;3.72;;
45848;SDS011;31567;54.600;9.842;2023-12-28T11:39:41;25.40;;;3.75;;
45848;SDS011;31567;54.600;9.842;2023-12-28T11:43:23;20.20;;;4.22;;
45848;SDS011;31567;54.600;9.842;2023-12-28T11:47:15;21.88;;;3.60;;
45848;SDS011;31567;54.600;9.842;2023-12-28T11:50:56;20.58;;;3.78;;
45848;SDS011;31567;54.600;9.842;2023-12-28T11:54:38;28.70;;;4.03;;
45848;SDS011;31567;54.600;9.842;2023-12-28T11:58:18;24.15;;;4.40;;
45848;SDS011;31567;54.600;9.842;2023-12-28T12:01:58;30.15;;;6.00;;
45848;SDS011;31567;54.600;9.842;2023-12-28T12:05:39;20.92;;;3.90;;
45848;SDS011;31567;54.600;9.842;2023-12-28T12:09:19;26.90;;;4.55;;
45848;SDS011;31567;54.600;9.842;2023-12-28T12:13:01;21.20;;;4.25;;
45848;SDS011;31567;54.600;9.842;2023-12-28T12:16:43;27.90;;;4.43;;
45848;SDS011;31567;54.600;9.842;2023-12-28T12:20:24;24.92;;;4.38;;
45848;SDS011;31567;54.600;9.842;2023-12-28T12:24:05;25.08;;;4.13;;
45848;SDS011;31567;54.600;9.842;2023-12-28T12:27:45;23.20;;;4.88;;
45848;SDS011;31567;54.600;9.842;2023-12-28T12:31:25;17.90;;;3.92;;
45848;SDS011;31567;54.600;9.842;2023-12-28T12:35:05;16.05;;;3.45;;
45848;SDS011;31567;54.600;9.842;2023-12-28T12:38:45;14.60;;;2.65;;
45848;SDS011;31567;54.600;9.842;2023-12-28T12:42:26;18.02;;;4.15;;
45848;SDS011;31567;54.600;9.842;2023-12-28T12:46:05;22.08;;;3.22;;
45848;SDS011;31567;54.600;9.842;2023-12-28T12:49:45;30.63;;;4.43;;
45848;SDS011;31567;54.600;9.842;2023-12-28T12:53:25;26.65;;;5.50;;
45848;SDS011;31567;54.600;9.842;2023-12-28T12:57:11;27.42;;;5.03;;
45848;SDS011;31567;54.600;9.842;2023-12-28T13:00:50;23.05;;;4.28;;
45848;SDS011;31567;54.600;9.842;2023-12-28T13:04:30;25.10;;;3.83;;
45848;SDS011;31567;54.600;9.842;2023-12-28T13:08:10;26.13;;;4.55;;
45848;SDS011;31567;54.600;9.842;2023-12-28T13:11:49;25.77;;;4.32;;
45848;SDS011;31567;54.600;9.842;2023-12-28T13:15:30;26.85;;;4.25;;
45848;SDS011;31567;54.600;9.842;2023-12-28T13:19:10;22.83;;;4.68;;
45848;SDS011;31567;54.600;9.842;2023-12-28T13:22:50;22.33;;;4.38;;
45848;SDS011;31567;54.600;9.842;2023-12-28T13:26:29;21.80;;;4.38;;
45848;SDS011;31567;54.600;9.842;2023-12-28T13:30:09;21.67;;;3.70;;
45848;SDS011;31567;54.600;9.842;2023-12-28T13:33:51;25.50;;;5.22;;
45848;SDS011;31567;54.600;9.842;2023-12-28T13:37:30;22.17;;;3.42;;
45848;SDS011;31567;54.600;9.842;2023-12-28T13:41:10;21.45;;;4.55;;
45848;SDS011;31567;54.600;9.842;2023-12-28T13:44:49;22.63;;;3.95;;
45848;SDS011;31567;54.600;9.842;2023-12-28T13:48:29;28.17;;;4.85;;
45848;SDS011;31567;54.600;9.842;2023-12-28T13:52:09;20.48;;;4.75;;
45848;SDS011;31567;54.600;9.842;2023-12-28T13:55:49;15.75;;;3.30;;
45848;SDS011;31567;54.600;9.842;2023-12-28T13:59:28;25.33;;;5.03;;
45848;SDS011;31567;54.600;9.842;2023-12-28T14:03:08;25.58;;;4.55;;
45848;SDS011;31567;54.600;9.842;2023-12-28T14:06:48;25.58;;;5.97;;
45848;SDS011;31567;54.600;9.842;2023-12-28T14:10:27;23.92;;;4.35;;
45848;SDS011;31567;54.600;9.842;2023-12-28T14:14:07;28.38;;;4.40;;
45848;SDS011;31567;54.600;9.842;2023-12-28T14:17:46;23.35;;;4.10;;
45848;SDS011;31567;54.600;9.842;2023-12-28T14:21:26;28.67;;;5.05;;
45848;SDS011;31567;54.600;9.842;2023-12-28T14:25:06;22.30;;;4.68;;
45848;SDS011;31567;54.600;9.842;2023-12-28T14:28:46;24.25;;;4.57;;
45848;SDS011;31567;54.600;9.842;2023-12-28T14:32:26;19.42;;;4.35;;
45848;SDS011;31567;54.600;9.842;2023-12-28T14:36:08;22.80;;;3.08;;
45848;SDS011;31567;54.600;9.842;2023-12-28T14:39:58;28.20;;;4.75;;
45848;SDS011;31567;54.600;9.842;2023-12-28T14:43:38;22.58;;;4.82;;
45848;SDS011;31567;54.600;9.842;2023-12-28T14:47:17;18.55;;;3.38;;
45848;SDS011;31567;54.600;9.842;2023-12-28T14:50:57;21.92;;;4.20;;
45848;SDS011;31567;54.600;9.842;2023-12-28T14:54:37;22.60;;;3.95;;
45848;SDS011;31567;54.600;9.842;2023-12-28T14:58:16;26.92;;;4.32;;
45848;SDS011;31567;54.600;9.842;2023-12-28T15:01:58;25.45;;;5.20;;
45848;SDS011;31567;54.600;9.842;2023-12-28T15:05:37;19.23;;;3.22;;
45848;SDS011;31567;54.600;9.842;2023-12-28T15:09:17;24.92;;;4.72;;
45848;SDS011;31567;54.600;9.842;2023-12-28T15:12:56;28.20;;;4.95;;
45848;SDS011;31567;54.600;9.842;2023-12-28T15:16:36;27.02;;;5.05;;
45848;SDS011;31567;54.600;9.842;2023-12-28T15:20:16;22.35;;;3.90;;
45848;SDS011;31567;54.600;9.842;2023-12-28T15:23:56;24.02;;;5.20;;
45848;SDS011;31567;54.600;9.842;2023-12-28T15:27:36;21.75;;;3.97;;
45848;SDS011;31567;54.600;9.842;2023-12-28T15:31:16;28.02;;;4.32;;
45848;SDS011;31567;54.600;9.842;2023-12-28T15:34:56;20.67;;;4.13;;
45848;SDS011;31567;54.600;9.842;2023-12-28T15:38:36;18.83;;;5.03;;
45848;SDS011;31567;54.600;9.842;2023-12-28T15:42:15;25.10;;;4.60;;
45848;SDS011;31567;54.600;9.842;2023-12-28T15:45:57;29.50;;;4.53;;
45848;SDS011;31567;54.600;9.842;2023-12-28T15:49:37;22.95;;;4.90;;
45848;SDS011;31567;54.600;9.842;2023-12-28T15:53:16;19.00;;;4.07;;
45848;SDS011;31567;54.600;9.842;2023-12-28T15:56:56;23.67;;;3.92;;
45848;SDS011;31567;54.600;9.842;2023-12-28T16:00:36;21.15;;;4.03;;
45848;SDS011;31567;54.600;9.842;2023-12-28T16:04:15;20.38;;;4.53;;
45848;SDS011;31567;54.600;9.842;2023-12-28T16:07:55;27.23;;;4.43;;
45848;SDS011;31567;54.600;9.842;2023-12-28T16:11:35;27.30;;;5.38;;
45848;SDS011;31567;54.600;9.842;2023-12-28T16:15:15;21.70;;;3.97;;
45848;SDS011;31567;54.600;9.842;2023-12-28T16:18:55;24.70;;;5.68;;
45848;SDS011;31567;54.600;9.842;2023-12-28T16:22:35;20.35;;;3.85;;
45848;SDS011;31567;54.600;9.842;2023-12-28T16:26:14;25.08;;;4.07;;
45848;SDS011;31567;54.600;9.842;2023-12-28T16:29:57;29.00;;;4.95;;
45848;SDS011;31567;54.600;9.842;2023-12-28T16:33:36;23.27;;;3.63;;
45848;SDS011;31567;54.600;9.842;2023-12-28T16:37:16;27.60;;;4.88;;
45848;SDS011;31567;54.600;9.842;2023-12-28T16:40:57;21.10;;;3.65;;
45848;SDS011;31567;54.600;9.842;2023-12-28T16:44:36;28.63;;;4.50;;
45848;SDS011;31567;54.600;9.842;2023-12-28T16:48:19;26.70;;;4.55;;
45848;SDS011;31567;54.600;9.842;2023-12-28T16:52:00;23.60;;;3.65;;
45848;SDS011;31567;54.600;9.842;2023-12-28T16:55:39;21.92;;;3.72;;
45848;SDS011;31567;54.600;9.842;2023-12-28T16:59:19;18.67;;;3.05;;
45848;SDS011;31567;54.600;9.842;2023-12-28T17:02:59;22.80;;;4.35;;
45848;SDS011;31567;54.600;9.842;2023-12-28T17:06:38;23.42;;;4.43;;
45848;SDS011;31567;54.600;9.842;2023-12-28T17:10:18;18.63;;;3.97;;
45848;SDS011;31567;54.600;9.842;2023-12-28T17:13:58;17.35;;;3.80;;
45848;SDS011;31567;54.600;9.842;2023-12-28T17:17:39;17.35;;;3.38;;
45848;SDS011;31567;54.600;9.842;2023-12-28T17:21:20;21.20;;;3.17;;
45848;SDS011;31567;54.600;9.842;2023-12-28T17:29:18;20.25;;;5.40;;
45848;SDS011;31567;54.600;9.842;2023-12-28T17:32:59;22.52;;;3.40;;
45848;SDS011;31567;54.600;9.842;2023-12-28T17:36:41;18.13;;;3.15;;
45848;SDS011;31567;54.600;9.842;2023-12-28T17:40:21;15.43;;;3.25;;
45848;SDS011;31567;54.600;9.842;2023-12-28T17:44:08;18.27;;;3.72;;
45848;SDS011;31567;54.600;9.842;2023-12-28T17:48:03;27.20;;;3.97;;
45848;SDS011;31567;54.600;9.842;2023-12-28T17:51:45;20.20;;;3.53;;
45848;SDS011;31567;54.600;9.842;2023-12-28T17:55:27;18.20;;;3.08;;
45848;SDS011;31567;54.600;9.842;2023-12-28T17:59:06;17.60;;;3.70;;
45848;SDS011;31567;54.600;9.842;2023-12-28T18:02:46;18.38;;;3.33;;
45848;SDS011;31567;54.600;9.842;2023-12-28T18:06:25;17.45;;;3.42;;
45848;SDS011;31567;54.600;9.842;2023-12-28T18:10:05;19.55;;;3.38;;
45848;SDS011;31567;54.600;9.842;2023-12-28T18:13:47;15.55;;;3.08;;
45848;SDS011;31567;54.600;9.842;2023-12-28T18:17:27;14.30;;;3.03;;
45848;SDS011;31567;54.600;9.842;2023-12-28T18:21:10;15.43;;;3.17;;
45848;SDS011;31567;54.600;9.842;2023-12-28T18:24:50;21.55;;;4.13;;
45848;SDS011;31567;54.600;9.842;2023-12-28T18:28:30;16.08;;;3.83;;
45848;SDS011;31567;54.600;9.842;2023-12-28T18:32:10;16.05;;;3.47;;
45848;SDS011;31567;54.600;9.842;2023-12-28T18:35:50;19.13;;;3.72;;
45848;SDS011;31567;54.600;9.842;2023-12-28T18:39:30;17.33;;;3.28;;
45848;SDS011;31567;54.600;9.842;2023-12-28T18:43:10;17.15;;;3.13;;
45848;SDS011;31567;54.600;9.842;2023-12-28T18:46:50;18.92;;;3.63;;
45848;SDS011;31567;54.600;9.842;2023-12-28T18:50:30;11.30;;;3.15;;
45848;SDS011;31567;54.600;9.842;2023-12-28T18:54:11;21.63;;;4.57;;
45848;SDS011;31567;54.600;9.842;2023-12-28T18:57:50;19.80;;;4.25;;
45848;SDS011;31567;54.600;9.842;2023-12-28T19:01:30;13.10;;;1.95;;
45848;SDS011;31567;54.600;9.842;2023-12-28T19:05:09;14.27;;;3.95;;
45848;SDS011;31567;54.600;9.842;2023-12-28T19:08:49;15.25;;;2.95;;
45848;SDS011;31567;54.600;9.842;2023-12-28T19:12:29;12.13;;;2.78;;
45848;SDS011;31567;54.600;9.842;2023-12-28T19:16:18;13.07;;;2.90;;
45848;SDS011;31567;54.600;9.842;2023-12-28T19:19:58;11.68;;;2.05;;
45848;SDS011;31567;54.600;9.842;2023-12-28T19:23:37;14.70;;;2.78;;
45848;SDS011;31567;54.600;9.842;2023-12-28T19:27:17;13.15;;;2.70;;
45848;SDS011;31567;54.600;9.842;2023-12-28T19:30:56;12.93;;;2.85;;
45848;SDS011;31567;54.600;9.842;2023-12-28T19:34:36;17.50;;;3.47;;
45848;SDS011;31567;54.600;9.842;2023-12-28T19:38:16;19.73;;;4.47;;
45848;SDS011;31567;54.600;9.842;2023-12-28T19:41:55;17.92;;;2.17;;
45848;SDS011;31567;54.600;9.842;2023-12-28T19:45:35;16.83;;;2.90;;
45848;SDS011;31567;54.600;9.842;2023-12-28T19:49:14;15.55;;;2.33;;
45848;SDS011;31567;54.600;9.842;2023-12-28T19:52:54;17.52;;;3.78;;
45848;SDS011;31567;54.600;9.842;2023-12-28T19:56:33;20.13;;;3.67;;
45848;SDS011;31567;54.600;9.842;2023-12-28T20:00:13;12.02;;;2.75;;
45848;SDS011;31567;54.600;9.842;2023-12-28T20:03:53;10.70;;;2.53;;
45848;SDS011;31567;54.600;9.842;2023-12-28T20:07:33;8.07;;;2.22;;
45848;SDS011;31567;54.600;9.842;2023-12-28T20:11:12;6.10;;;1.98;;
45848;SDS011;31567;54.600;9.842;2023-12-28T20:14:52;15.80;;;2.83;;
45848;SDS011;31567;54.600;9.842;2023-12-28T20:18:31;10.57;;;2.65;;
45848;SDS011;31567;54.600;9.842;2023-12-28T20:22:12;15.98;;;2.40;;
45848;SDS011;31567;54.600;9.842;2023-12-28T20:25:51;10.82;;;2.83;;
45848;SDS011;31567;54.600;9.842;2023-12-28T20:29:31;19.00;;;3.20;;
45848;SDS011;31567;54.600;9.842;2023-12-28T20:33:10;11.07;;;2.95;;
45848;SDS011;31567;54.600;9.842;2023-12-28T20:36:51;12.70;;;3.42;;
45848;SDS011;31567;54.600;9.842;2023-12-28T20:40:31;9.90;;;2.40;;
45848;SDS011;31567;54.600;9.842;2023-12-28T20:44:11;11.43;;;2.55;;
45848;SDS011;31567;54.600;9.842;2023-12-28T20:47:51;12.95;;;3.05;;
45848;SDS011;31567;54.600;9.842;2023-12-28T20:51:30;16.80;;;2.90;;
45848;SDS011;31567;54.600;9.842;2023-12-28T20:55:10;22.98;;;3.80;;
45848;SDS011;31567;54.600;9.842;2023-12-28T20:58:50;9.27;;;2.22;;
45848;SDS011;31567;54.600;9.842;2023-12-28T21:02:29;15.43;;;2.53;;
45848;SDS011;31567;54.600;9.842;2023-12-28T21:06:10;16.00;;;2.92;;
45848;SDS011;31567;54.600;9.842;2023-12-28T21:09:49;10.70;;;2.35;;
45848;SDS011;31567;54.600;9.842;2023-12-28T21:13:29;14.10;;;4.03;;
45848;SDS011;31567;54.600;9.842;2023-12-28T21:17:11;13.10;;;2.25;;
45848;SDS011;31567;54.600;9.842;2023-12-28T21:20:51;11.65;;;2.58;;
45848;SDS011;31567;54.600;9.842;2023-12-28T21:24:32;17.08;;;3.65;;
45848;SDS011;31567;54.600;9.842;2023-12-28T21:28:16;11.82;;;2.45;;
45848;SDS011;31567;54.600;9.842;2023-12-28T21:31:56;12.00;;;1.95;;
45848;SDS011;31567;54.600;9.842;2023-12-28T21:35:36;13.48;;;3.05;;
45848;SDS011;31567;54.600;9.842;2023-12-28T21:39:17;14.55;;;3.05;;
45848;SDS011;31567;54.600;9.842;2023-12-28T21:42:56;10.38;;;2.03;;
45848;SDS011;31567;54.600;9.842;2023-12-28T21:46:36;8.75;;;2.17;;
45848;SDS011;31567;54.600;9.842;2023-12-28T21:50:17;10.98;;;2.40;;
45848;SDS011;31567;54.600;9.842;2023-12-28T21:53:57;10.77;;;2.78;;
45848;SDS011;31567;54.600;9.842;2023-12-28T21:57:37;9.13;;;2.10;;
45848;SDS011;31567;54.600;9.842;2023-12-28T22:01:16;11.27;;;2.55;;
45848;SDS011;31567;54.600;9.842;2023-12-28T22:04:56;13.45;;;2.78;;